sensor_id;sensor_type;location;lat;lon;timestamp;P1;durP1;ratioP1;P2;durP2;ratioP2
11646;SDS011;5880;52.342;9.662;2023-03-13T00:00:31;8.87;;;3.03;;
11646;SDS011;5880;52.342;9.662;2023-03-13T00:02:56;10.07;;;3.23;;
11646;SDS011;5880;52.342;9.662;2023-03-13T00:05:22;13.73;;;3.03;;
11646;SDS011;5880;52.342;9.662;2023-03-13T00:07:47;12.57;;;3.30;;
11646;SDS011;5880;52.342;9.662;2023-03-13T00:10:13;13.67;;;3.47;;
11646;SDS011;5880;52.342;9.662;2023-03-13T00:12:39;12.90;;;3.17;;
11646;SDS011;5880;52.342;9.662;2023-03-13T00:15:04;12.20;;;3.10;;
11646;SDS011;5880;52.342;9.662;2023-03-13T00:17:31;10.03;;;3.33;;
11646;SDS011;5880;52.342;9.662;2023-03-13T00:19:57;13.40;;;4.37;;
11646;SDS011;5880;52.342;9.662;2023-03-13T00:22:23;9.90;;;3.53;;
11646;SDS011;5880;52.342;9.662;2023-03-13T00:24:48;9.27;;;3.10;;
11646;SDS011;5880;52.342;9.662;2023-03-13T00:27:14;10.03;;;3.13;;
11646;SDS011;5880;52.342;9.662;2023-03-13T00:29:39;10.67;;;3.20;;
11646;SDS011;5880;52.342;9.662;2023-03-13T00:32:05;8.47;;;2.80;;
11646;SDS011;5880;52.342;9.662;2023-03-13T00:34:31;14.03;;;3.47;;
11646;SDS011;5880;52.342;9.662;2023-03-13T00:36:57;13.17;;;3.20;;
11646;SDS011;5880;52.342;9.662;2023-03-13T00:39:22;10.27;;;2.90;;
11646;SDS011;5880;52.342;9.662;2023-03-13T00:41:48;14.07;;;3.20;;
11646;SDS011;5880;52.342;9.662;2023-03-13T00:44:14;11.90;;;3.37;;
11646;SDS011;5880;52.342;9.662;2023-03-13T00:46:40;7.83;;;3.00;;
11646;SDS011;5880;52.342;9.662;2023-03-13T00:49:06;10.00;;;2.93;;
11646;SDS011;5880;52.342;9.662;2023-03-13T00:51:31;9.73;;;3.43;;
11646;SDS011;5880;52.342;9.662;2023-03-13T00:53:58;11.90;;;3.07;;
11646;SDS011;5880;52.342;9.662;2023-03-13T00:56:25;9.30;;;2.70;;
11646;SDS011;5880;52.342;9.662;2023-03-13T00:58:51;10.00;;;2.73;;
11646;SDS011;5880;52.342;9.662;2023-03-13T01:03:53;11.33;;;3.70;;
11646;SDS011;5880;52.342;9.662;2023-03-13T01:06:25;9.23;;;3.07;;
11646;SDS011;5880;52.342;9.662;2023-03-13T01:08:53;17.20;;;3.73;;
11646;SDS011;5880;52.342;9.662;2023-03-13T01:11:24;7.93;;;2.87;;
11646;SDS011;5880;52.342;9.662;2023-03-13T01:13:57;8.50;;;2.63;;
11646;SDS011;5880;52.342;9.662;2023-03-13T01:16:26;10.67;;;3.27;;
11646;SDS011;5880;52.342;9.662;2023-03-13T01:18:55;8.93;;;3.40;;
11646;SDS011;5880;52.342;9.662;2023-03-13T01:21:27;8.63;;;2.73;;
11646;SDS011;5880;52.342;9.662;2023-03-13T01:23:53;8.90;;;2.60;;
11646;SDS011;5880;52.342;9.662;2023-03-13T01:26:19;12.03;;;3.10;;
11646;SDS011;5880;52.342;9.662;2023-03-13T01:28:46;9.57;;;3.30;;
11646;SDS011;5880;52.342;9.662;2023-03-13T01:31:19;8.00;;;2.80;;
11646;SDS011;5880;52.342;9.662;2023-03-13T01:33:50;6.47;;;2.80;;
11646;SDS011;5880;52.342;9.662;2023-03-13T01:36:20;7.60;;;2.97;;
11646;SDS011;5880;52.342;9.662;2023-03-13T01:38:47;8.77;;;3.40;;
11646;SDS011;5880;52.342;9.662;2023-03-13T01:41:15;8.63;;;2.80;;
11646;SDS011;5880;52.342;9.662;2023-03-13T01:43:42;11.07;;;3.17;;
11646;SDS011;5880;52.342;9.662;2023-03-13T01:46:10;6.37;;;2.47;;
11646;SDS011;5880;52.342;9.662;2023-03-13T01:49:11;10.50;;;2.80;;
11646;SDS011;5880;52.342;9.662;2023-03-13T01:51:57;8.43;;;2.87;;
11646;SDS011;5880;52.342;9.662;2023-03-13T01:57:20;9.63;;;2.63;;
11646;SDS011;5880;52.342;9.662;2023-03-13T01:59:55;9.33;;;2.77;;
11646;SDS011;5880;52.342;9.662;2023-03-13T02:02:29;8.03;;;2.87;;
11646;SDS011;5880;52.342;9.662;2023-03-13T02:04:56;10.40;;;3.00;;
11646;SDS011;5880;52.342;9.662;2023-03-13T02:07:34;9.00;;;2.33;;
11646;SDS011;5880;52.342;9.662;2023-03-13T02:10:10;10.57;;;3.00;;
11646;SDS011;5880;52.342;9.662;2023-03-13T02:12:40;10.07;;;3.17;;
11646;SDS011;5880;52.342;9.662;2023-03-13T02:15:10;8.50;;;3.20;;
11646;SDS011;5880;52.342;9.662;2023-03-13T02:17:41;6.53;;;2.60;;
11646;SDS011;5880;52.342;9.662;2023-03-13T02:20:08;6.20;;;2.27;;
11646;SDS011;5880;52.342;9.662;2023-03-13T02:25:39;10.27;;;2.60;;
11646;SDS011;5880;52.342;9.662;2023-03-13T02:28:17;9.73;;;2.50;;
11646;SDS011;5880;52.342;9.662;2023-03-13T02:30:52;8.70;;;2.50;;
11646;SDS011;5880;52.342;9.662;2023-03-13T02:33:22;6.40;;;3.10;;
11646;SDS011;5880;52.342;9.662;2023-03-13T02:35:53;8.30;;;2.50;;
11646;SDS011;5880;52.342;9.662;2023-03-13T02:38:20;10.03;;;2.57;;
11646;SDS011;5880;52.342;9.662;2023-03-13T02:40:50;9.73;;;2.80;;
11646;SDS011;5880;52.342;9.662;2023-03-13T02:43:24;11.60;;;3.10;;
11646;SDS011;5880;52.342;9.662;2023-03-13T02:46:12;8.07;;;2.87;;
11646;SDS011;5880;52.342;9.662;2023-03-13T02:48:45;10.13;;;2.70;;
11646;SDS011;5880;52.342;9.662;2023-03-13T02:51:35;10.97;;;3.10;;
11646;SDS011;5880;52.342;9.662;2023-03-13T02:54:09;8.70;;;2.73;;
11646;SDS011;5880;52.342;9.662;2023-03-13T02:56:45;8.50;;;3.23;;
11646;SDS011;5880;52.342;9.662;2023-03-13T02:59:17;14.07;;;3.03;;
11646;SDS011;5880;52.342;9.662;2023-03-13T03:01:43;12.83;;;2.90;;
11646;SDS011;5880;52.342;9.662;2023-03-13T03:04:09;6.73;;;2.43;;
11646;SDS011;5880;52.342;9.662;2023-03-13T03:06:35;9.37;;;2.77;;
11646;SDS011;5880;52.342;9.662;2023-03-13T03:09:01;7.97;;;2.87;;
11646;SDS011;5880;52.342;9.662;2023-03-13T03:11:27;9.53;;;2.40;;
11646;SDS011;5880;52.342;9.662;2023-03-13T03:13:53;9.07;;;2.77;;
11646;SDS011;5880;52.342;9.662;2023-03-13T03:16:18;5.60;;;2.50;;
11646;SDS011;5880;52.342;9.662;2023-03-13T03:18:44;7.43;;;2.60;;
11646;SDS011;5880;52.342;9.662;2023-03-13T03:21:11;8.03;;;2.83;;
11646;SDS011;5880;52.342;9.662;2023-03-13T03:23:37;8.93;;;2.83;;
11646;SDS011;5880;52.342;9.662;2023-03-13T03:26:03;6.40;;;2.47;;
11646;SDS011;5880;52.342;9.662;2023-03-13T03:28:31;7.37;;;2.40;;
11646;SDS011;5880;52.342;9.662;2023-03-13T03:30:57;4.83;;;2.20;;
11646;SDS011;5880;52.342;9.662;2023-03-13T03:33:28;5.63;;;2.40;;
11646;SDS011;5880;52.342;9.662;2023-03-13T03:35:58;8.50;;;2.30;;
11646;SDS011;5880;52.342;9.662;2023-03-13T03:38:29;6.80;;;2.33;;
11646;SDS011;5880;52.342;9.662;2023-03-13T03:40:55;8.60;;;2.80;;
11646;SDS011;5880;52.342;9.662;2023-03-13T03:43:20;7.37;;;2.43;;
11646;SDS011;5880;52.342;9.662;2023-03-13T03:45:46;7.77;;;2.40;;
11646;SDS011;5880;52.342;9.662;2023-03-13T03:48:12;7.93;;;2.60;;
11646;SDS011;5880;52.342;9.662;2023-03-13T03:50:38;7.07;;;2.17;;
11646;SDS011;5880;52.342;9.662;2023-03-13T03:53:03;8.20;;;2.73;;
11646;SDS011;5880;52.342;9.662;2023-03-13T03:55:29;6.83;;;2.33;;
11646;SDS011;5880;52.342;9.662;2023-03-13T03:57:54;8.43;;;2.83;;
11646;SDS011;5880;52.342;9.662;2023-03-13T04:00:20;10.27;;;2.87;;
11646;SDS011;5880;52.342;9.662;2023-03-13T04:02:46;9.73;;;2.87;;
11646;SDS011;5880;52.342;9.662;2023-03-13T04:05:11;7.87;;;2.60;;
11646;SDS011;5880;52.342;9.662;2023-03-13T04:07:37;10.83;;;2.73;;
11646;SDS011;5880;52.342;9.662;2023-03-13T04:10:03;7.23;;;2.27;;
11646;SDS011;5880;52.342;9.662;2023-03-13T04:12:29;8.63;;;2.63;;
11646;SDS011;5880;52.342;9.662;2023-03-13T04:14:55;7.27;;;2.53;;
11646;SDS011;5880;52.342;9.662;2023-03-13T04:17:21;7.63;;;2.67;;
11646;SDS011;5880;52.342;9.662;2023-03-13T04:19:46;9.57;;;2.60;;
11646;SDS011;5880;52.342;9.662;2023-03-13T04:22:12;6.43;;;2.43;;
11646;SDS011;5880;52.342;9.662;2023-03-13T04:24:38;7.37;;;2.50;;
11646;SDS011;5880;52.342;9.662;2023-03-13T04:27:03;6.50;;;2.27;;
11646;SDS011;5880;52.342;9.662;2023-03-13T04:29:30;7.40;;;2.73;;
11646;SDS011;5880;52.342;9.662;2023-03-13T04:31:57;9.87;;;2.83;;
11646;SDS011;5880;52.342;9.662;2023-03-13T04:34:22;6.37;;;2.40;;
11646;SDS011;5880;52.342;9.662;2023-03-13T04:36:48;5.17;;;2.27;;
11646;SDS011;5880;52.342;9.662;2023-03-13T04:39:14;5.80;;;2.30;;
11646;SDS011;5880;52.342;9.662;2023-03-13T04:41:40;7.23;;;2.57;;
11646;SDS011;5880;52.342;9.662;2023-03-13T04:44:05;8.33;;;2.10;;
11646;SDS011;5880;52.342;9.662;2023-03-13T04:46:31;8.47;;;2.77;;
11646;SDS011;5880;52.342;9.662;2023-03-13T04:48:57;8.43;;;2.43;;
11646;SDS011;5880;52.342;9.662;2023-03-13T04:51:22;7.20;;;2.60;;
11646;SDS011;5880;52.342;9.662;2023-03-13T04:53:48;10.97;;;3.07;;
11646;SDS011;5880;52.342;9.662;2023-03-13T04:56:18;8.53;;;2.50;;
11646;SDS011;5880;52.342;9.662;2023-03-13T04:58:49;5.53;;;2.27;;
11646;SDS011;5880;52.342;9.662;2023-03-13T05:01:15;7.63;;;2.50;;
11646;SDS011;5880;52.342;9.662;2023-03-13T05:03:40;6.53;;;2.70;;
11646;SDS011;5880;52.342;9.662;2023-03-13T05:06:06;7.60;;;2.50;;
11646;SDS011;5880;52.342;9.662;2023-03-13T05:08:32;7.40;;;2.43;;
11646;SDS011;5880;52.342;9.662;2023-03-13T05:10:57;8.73;;;2.30;;
11646;SDS011;5880;52.342;9.662;2023-03-13T05:13:23;5.43;;;2.10;;
11646;SDS011;5880;52.342;9.662;2023-03-13T05:15:49;5.57;;;1.97;;
11646;SDS011;5880;52.342;9.662;2023-03-13T05:18:14;7.93;;;2.07;;
11646;SDS011;5880;52.342;9.662;2023-03-13T05:20:40;5.23;;;1.90;;
11646;SDS011;5880;52.342;9.662;2023-03-13T05:23:06;5.47;;;1.73;;
11646;SDS011;5880;52.342;9.662;2023-03-13T05:25:31;4.97;;;1.87;;
11646;SDS011;5880;52.342;9.662;2023-03-13T05:27:57;7.37;;;2.00;;
11646;SDS011;5880;52.342;9.662;2023-03-13T05:30:22;6.00;;;2.00;;
11646;SDS011;5880;52.342;9.662;2023-03-13T05:32:48;4.63;;;1.77;;
11646;SDS011;5880;52.342;9.662;2023-03-13T05:35:14;5.23;;;2.17;;
11646;SDS011;5880;52.342;9.662;2023-03-13T05:37:39;4.77;;;1.80;;
11646;SDS011;5880;52.342;9.662;2023-03-13T05:40:05;4.80;;;1.90;;
11646;SDS011;5880;52.342;9.662;2023-03-13T05:42:31;7.50;;;1.97;;
11646;SDS011;5880;52.342;9.662;2023-03-13T05:44:57;6.63;;;1.80;;
11646;SDS011;5880;52.342;9.662;2023-03-13T05:47:23;7.37;;;2.00;;
11646;SDS011;5880;52.342;9.662;2023-03-13T05:49:48;7.53;;;2.17;;
11646;SDS011;5880;52.342;9.662;2023-03-13T05:52:14;5.37;;;2.07;;
11646;SDS011;5880;52.342;9.662;2023-03-13T05:54:40;4.50;;;1.83;;
11646;SDS011;5880;52.342;9.662;2023-03-13T05:57:05;4.40;;;1.73;;
11646;SDS011;5880;52.342;9.662;2023-03-13T05:59:31;10.37;;;2.20;;
11646;SDS011;5880;52.342;9.662;2023-03-13T06:01:59;3.17;;;1.50;;
11646;SDS011;5880;52.342;9.662;2023-03-13T06:04:24;4.93;;;1.97;;
11646;SDS011;5880;52.342;9.662;2023-03-13T06:06:50;2.87;;;1.90;;
11646;SDS011;5880;52.342;9.662;2023-03-13T06:09:16;6.43;;;1.70;;
11646;SDS011;5880;52.342;9.662;2023-03-13T06:11:41;6.07;;;2.00;;
11646;SDS011;5880;52.342;9.662;2023-03-13T06:14:07;3.67;;;1.70;;
11646;SDS011;5880;52.342;9.662;2023-03-13T06:16:33;4.03;;;1.70;;
11646;SDS011;5880;52.342;9.662;2023-03-13T06:18:59;4.50;;;1.73;;
11646;SDS011;5880;52.342;9.662;2023-03-13T06:21:24;2.97;;;1.50;;
11646;SDS011;5880;52.342;9.662;2023-03-13T06:23:50;3.90;;;1.63;;
11646;SDS011;5880;52.342;9.662;2023-03-13T06:26:16;2.57;;;1.20;;
11646;SDS011;5880;52.342;9.662;2023-03-13T06:28:41;4.27;;;1.53;;
11646;SDS011;5880;52.342;9.662;2023-03-13T06:31:07;2.87;;;1.50;;
11646;SDS011;5880;52.342;9.662;2023-03-13T06:33:34;3.33;;;1.20;;
11646;SDS011;5880;52.342;9.662;2023-03-13T06:36:01;3.80;;;1.60;;
11646;SDS011;5880;52.342;9.662;2023-03-13T06:38:28;2.27;;;1.20;;
11646;SDS011;5880;52.342;9.662;2023-03-13T06:40:54;3.07;;;1.40;;
11646;SDS011;5880;52.342;9.662;2023-03-13T06:43:20;4.03;;;1.40;;
11646;SDS011;5880;52.342;9.662;2023-03-13T06:45:46;2.43;;;1.40;;
11646;SDS011;5880;52.342;9.662;2023-03-13T06:48:13;1.97;;;1.20;;
11646;SDS011;5880;52.342;9.662;2023-03-13T06:50:39;1.90;;;1.37;;
11646;SDS011;5880;52.342;9.662;2023-03-13T06:53:05;2.47;;;1.10;;
11646;SDS011;5880;52.342;9.662;2023-03-13T06:55:31;1.80;;;1.20;;
11646;SDS011;5880;52.342;9.662;2023-03-13T06:57:57;2.60;;;1.57;;
11646;SDS011;5880;52.342;9.662;2023-03-13T07:00:22;2.73;;;1.50;;
11646;SDS011;5880;52.342;9.662;2023-03-13T07:02:49;2.27;;;1.17;;
11646;SDS011;5880;52.342;9.662;2023-03-13T07:05:15;2.40;;;1.30;;
11646;SDS011;5880;52.342;9.662;2023-03-13T07:07:42;2.60;;;1.30;;
11646;SDS011;5880;52.342;9.662;2023-03-13T07:10:08;2.63;;;1.30;;
11646;SDS011;5880;52.342;9.662;2023-03-13T07:12:36;2.63;;;1.30;;
11646;SDS011;5880;52.342;9.662;2023-03-13T07:15:02;3.37;;;1.37;;
11646;SDS011;5880;52.342;9.662;2023-03-13T07:17:29;2.80;;;1.60;;
11646;SDS011;5880;52.342;9.662;2023-03-13T07:19:55;1.50;;;1.07;;
11646;SDS011;5880;52.342;9.662;2023-03-13T07:22:20;3.90;;;1.40;;
11646;SDS011;5880;52.342;9.662;2023-03-13T07:24:47;2.33;;;1.20;;
11646;SDS011;5880;52.342;9.662;2023-03-13T07:27:12;1.43;;;1.30;;
11646;SDS011;5880;52.342;9.662;2023-03-13T07:29:38;1.10;;;1.00;;
11646;SDS011;5880;52.342;9.662;2023-03-13T07:32:04;4.40;;;1.43;;
11646;SDS011;5880;52.342;9.662;2023-03-13T07:34:30;2.63;;;1.10;;
11646;SDS011;5880;52.342;9.662;2023-03-13T07:36:56;1.27;;;1.10;;
11646;SDS011;5880;52.342;9.662;2023-03-13T07:39:21;1.63;;;1.10;;
11646;SDS011;5880;52.342;9.662;2023-03-13T07:41:47;1.93;;;0.90;;
11646;SDS011;5880;52.342;9.662;2023-03-13T07:44:12;2.03;;;1.37;;
11646;SDS011;5880;52.342;9.662;2023-03-13T07:46:38;1.10;;;1.00;;
11646;SDS011;5880;52.342;9.662;2023-03-13T07:49:04;1.47;;;1.10;;
11646;SDS011;5880;52.342;9.662;2023-03-13T07:51:29;1.10;;;1.00;;
11646;SDS011;5880;52.342;9.662;2023-03-13T07:53:55;1.67;;;1.00;;
11646;SDS011;5880;52.342;9.662;2023-03-13T07:56:21;1.87;;;1.00;;
11646;SDS011;5880;52.342;9.662;2023-03-13T07:58:48;1.83;;;1.37;;
11646;SDS011;5880;52.342;9.662;2023-03-13T08:01:19;1.10;;;1.00;;
11646;SDS011;5880;52.342;9.662;2023-03-13T08:03:47;1.37;;;1.17;;
11646;SDS011;5880;52.342;9.662;2023-03-13T08:06:15;2.03;;;1.27;;
11646;SDS011;5880;52.342;9.662;2023-03-13T08:08:44;2.33;;;1.20;;
11646;SDS011;5880;52.342;9.662;2023-03-13T08:11:11;1.20;;;1.10;;
11646;SDS011;5880;52.342;9.662;2023-03-13T08:13:41;2.33;;;1.20;;
11646;SDS011;5880;52.342;9.662;2023-03-13T08:16:14;1.30;;;1.20;;
11646;SDS011;5880;52.342;9.662;2023-03-13T08:18:44;1.57;;;1.30;;
11646;SDS011;5880;52.342;9.662;2023-03-13T08:21:14;1.30;;;1.20;;
11646;SDS011;5880;52.342;9.662;2023-03-13T08:23:42;1.83;;;1.40;;
11646;SDS011;5880;52.342;9.662;2023-03-13T08:26:15;2.17;;;1.30;;
11646;SDS011;5880;52.342;9.662;2023-03-13T08:28:44;1.20;;;1.10;;
11646;SDS011;5880;52.342;9.662;2023-03-13T08:31:16;2.07;;;1.47;;
11646;SDS011;5880;52.342;9.662;2023-03-13T08:33:48;3.03;;;1.40;;
11646;SDS011;5880;52.342;9.662;2023-03-13T08:36:16;1.93;;;1.60;;
11646;SDS011;5880;52.342;9.662;2023-03-13T08:38:49;1.70;;;1.60;;
11646;SDS011;5880;52.342;9.662;2023-03-13T08:41:17;1.77;;;1.67;;
11646;SDS011;5880;52.342;9.662;2023-03-13T08:43:50;2.43;;;1.70;;
11646;SDS011;5880;52.342;9.662;2023-03-13T08:46:17;2.40;;;1.50;;
11646;SDS011;5880;52.342;9.662;2023-03-13T08:48:43;2.63;;;1.80;;
11646;SDS011;5880;52.342;9.662;2023-03-13T08:51:10;1.90;;;1.60;;
11646;SDS011;5880;52.342;9.662;2023-03-13T08:53:38;1.87;;;1.60;;
11646;SDS011;5880;52.342;9.662;2023-03-13T08:56:07;1.70;;;1.60;;
11646;SDS011;5880;52.342;9.662;2023-03-13T08:58:35;2.13;;;1.60;;
11646;SDS011;5880;52.342;9.662;2023-03-13T09:01:05;2.40;;;1.77;;
11646;SDS011;5880;52.342;9.662;2023-03-13T09:03:34;2.83;;;1.70;;
11646;SDS011;5880;52.342;9.662;2023-03-13T09:06:00;2.70;;;1.70;;
11646;SDS011;5880;52.342;9.662;2023-03-13T09:08:27;2.13;;;1.60;;
11646;SDS011;5880;52.342;9.662;2023-03-13T09:10:55;1.97;;;1.60;;
11646;SDS011;5880;52.342;9.662;2023-03-13T09:13:23;1.77;;;1.67;;
11646;SDS011;5880;52.342;9.662;2023-03-13T09:15:54;2.57;;;1.70;;
11646;SDS011;5880;52.342;9.662;2023-03-13T09:18:31;2.27;;;1.70;;
11646;SDS011;5880;52.342;9.662;2023-03-13T09:20:58;1.80;;;1.58;;
11646;SDS011;5880;52.342;9.662;2023-03-13T09:23:24;2.42;;;1.63;;
11646;SDS011;5880;52.342;9.662;2023-03-13T09:25:54;1.90;;;1.60;;
11646;SDS011;5880;52.342;9.662;2023-03-13T09:28:22;1.63;;;1.40;;
11646;SDS011;5880;52.342;9.662;2023-03-13T09:30:49;3.47;;;1.63;;
11646;SDS011;5880;52.342;9.662;2023-03-13T09:33:17;2.15;;;1.58;;
11646;SDS011;5880;52.342;9.662;2023-03-13T09:35:45;1.95;;;1.40;;
11646;SDS011;5880;52.342;9.662;2023-03-13T09:38:17;1.90;;;1.50;;
11646;SDS011;5880;52.342;9.662;2023-03-13T09:40:47;1.95;;;1.40;;
11646;SDS011;5880;52.342;9.662;2023-03-13T09:43:31;2.65;;;1.42;;
11646;SDS011;5880;52.342;9.662;2023-03-13T09:46:22;1.75;;;1.52;;
11646;SDS011;5880;52.342;9.662;2023-03-13T09:49:04;2.13;;;1.80;;
11646;SDS011;5880;52.342;9.662;2023-03-13T09:51:40;2.03;;;1.30;;
11646;SDS011;5880;52.342;9.662;2023-03-13T09:54:20;1.93;;;1.50;;
11646;SDS011;5880;52.342;9.662;2023-03-13T09:57:03;1.42;;;1.33;;
11646;SDS011;5880;52.342;9.662;2023-03-13T09:59:45;2.88;;;1.33;;
11646;SDS011;5880;52.342;9.662;2023-03-13T10:02:20;1.80;;;1.35;;
11646;SDS011;5880;52.342;9.662;2023-03-13T10:05:20;2.95;;;1.80;;
11646;SDS011;5880;52.342;9.662;2023-03-13T10:07:49;2.28;;;1.35;;
11646;SDS011;5880;52.342;9.662;2023-03-13T10:10:28;2.42;;;1.52;;
11646;SDS011;5880;52.342;9.662;2023-03-13T10:13:27;1.60;;;1.25;;
11646;SDS011;5880;52.342;9.662;2023-03-13T10:16:21;1.83;;;1.20;;
11646;SDS011;5880;52.342;9.662;2023-03-13T10:18:54;1.60;;;1.30;;
11646;SDS011;5880;52.342;9.662;2023-03-13T10:21:31;1.98;;;1.77;;
11646;SDS011;5880;52.342;9.662;2023-03-13T10:24:02;1.45;;;1.35;;
11646;SDS011;5880;52.342;9.662;2023-03-13T10:26:46;1.88;;;1.50;;
11646;SDS011;5880;52.342;9.662;2023-03-13T10:29:16;2.53;;;1.40;;
11646;SDS011;5880;52.342;9.662;2023-03-13T10:32:03;5.40;;;1.50;;
11646;SDS011;5880;52.342;9.662;2023-03-13T10:37:31;1.50;;;1.40;;
11646;SDS011;5880;52.342;9.662;2023-03-13T10:40:11;1.98;;;1.50;;
11646;SDS011;5880;52.342;9.662;2023-03-13T10:42:50;2.90;;;1.83;;
11646;SDS011;5880;52.342;9.662;2023-03-13T10:45:25;1.67;;;1.58;;
11646;SDS011;5880;52.342;9.662;2023-03-13T10:47:59;1.90;;;1.70;;
11646;SDS011;5880;52.342;9.662;2023-03-13T10:50:34;2.75;;;1.80;;
11646;SDS011;5880;52.342;9.662;2023-03-13T10:55:47;1.90;;;1.70;;
11646;SDS011;5880;52.342;9.662;2023-03-13T10:58:18;3.35;;;1.77;;
11646;SDS011;5880;52.342;9.662;2023-03-13T11:03:53;1.98;;;1.77;;
11646;SDS011;5880;52.342;9.662;2023-03-13T11:08:59;2.38;;;2.10;;
11646;SDS011;5880;52.342;9.662;2023-03-13T11:11:48;1.80;;;1.67;;
11646;SDS011;5880;52.342;9.662;2023-03-13T11:14:38;2.42;;;1.50;;
11646;SDS011;5880;52.342;9.662;2023-03-13T11:20:40;1.73;;;1.60;;
11646;SDS011;5880;52.342;9.662;2023-03-13T11:25:42;1.85;;;1.60;;
11646;SDS011;5880;52.342;9.662;2023-03-13T11:31:11;2.08;;;1.83;;
11646;SDS011;5880;52.342;9.662;2023-03-13T11:33:56;1.70;;;1.60;;
11646;SDS011;5880;52.342;9.662;2023-03-13T11:36:38;1.67;;;1.55;;
11646;SDS011;5880;52.342;9.662;2023-03-13T11:56:57;2.10;;;1.65;;
11646;SDS011;5880;52.342;9.662;2023-03-13T12:02:42;2.90;;;1.70;;
11646;SDS011;5880;52.342;9.662;2023-03-13T12:05:17;1.80;;;1.70;;
11646;SDS011;5880;52.342;9.662;2023-03-13T12:07:49;2.72;;;1.75;;
11646;SDS011;5880;52.342;9.662;2023-03-13T12:10:30;2.88;;;1.85;;
11646;SDS011;5880;52.342;9.662;2023-03-13T12:13:16;2.30;;;1.67;;
11646;SDS011;5880;52.342;9.662;2023-03-13T12:15:57;1.52;;;1.42;;
11646;SDS011;5880;52.342;9.662;2023-03-13T12:18:34;1.98;;;1.45;;
11646;SDS011;5880;52.342;9.662;2023-03-13T12:24:21;3.28;;;1.42;;
11646;SDS011;5880;52.342;9.662;2023-03-13T12:30:26;1.67;;;1.48;;
11646;SDS011;5880;52.342;9.662;2023-03-13T12:33:26;2.17;;;1.77;;
11646;SDS011;5880;52.342;9.662;2023-03-13T12:36:25;2.45;;;1.50;;
11646;SDS011;5880;52.342;9.662;2023-03-13T12:44:57;2.53;;;1.55;;
11646;SDS011;5880;52.342;9.662;2023-03-13T12:47:27;1.60;;;1.50;;
11646;SDS011;5880;52.342;9.662;2023-03-13T12:50:25;1.80;;;1.58;;
11646;SDS011;5880;52.342;9.662;2023-03-13T12:56:32;1.88;;;1.50;;
11646;SDS011;5880;52.342;9.662;2023-03-13T12:59:44;3.80;;;1.77;;
11646;SDS011;5880;52.342;9.662;2023-03-13T13:02:19;1.55;;;1.45;;
11646;SDS011;5880;52.342;9.662;2023-03-13T13:04:49;2.28;;;1.58;;
11646;SDS011;5880;52.342;9.662;2023-03-13T13:07:32;1.83;;;1.60;;
11646;SDS011;5880;52.342;9.662;2023-03-13T13:12:33;1.50;;;1.40;;
11646;SDS011;5880;52.342;9.662;2023-03-13T13:15:02;2.78;;;1.90;;
11646;SDS011;5880;52.342;9.662;2023-03-13T13:18:14;1.33;;;1.20;;
11646;SDS011;5880;52.342;9.662;2023-03-13T13:23:45;1.80;;;1.40;;
11646;SDS011;5880;52.342;9.662;2023-03-13T13:28:54;2.30;;;1.30;;
11646;SDS011;5880;52.342;9.662;2023-03-13T13:36:56;1.20;;;1.10;;
11646;SDS011;5880;52.342;9.662;2023-03-13T13:47:39;3.42;;;0.95;;
11646;SDS011;5880;52.342;9.662;2023-03-13T13:50:25;1.85;;;0.80;;
11646;SDS011;5880;52.342;9.662;2023-03-13T13:52:56;1.23;;;0.77;;
11646;SDS011;5880;52.342;9.662;2023-03-13T13:55:55;1.02;;;0.90;;
11646;SDS011;5880;52.342;9.662;2023-03-13T13:58:24;1.17;;;1.00;;
11646;SDS011;5880;52.342;9.662;2023-03-13T14:01:02;0.73;;;0.73;;
11646;SDS011;5880;52.342;9.662;2023-03-13T14:03:36;1.33;;;0.73;;
11646;SDS011;5880;52.342;9.662;2023-03-13T14:06:14;0.80;;;0.80;;
11646;SDS011;5880;52.342;9.662;2023-03-13T14:08:55;0.77;;;0.70;;
11646;SDS011;5880;52.342;9.662;2023-03-13T14:11:45;2.78;;;0.73;;
11646;SDS011;5880;52.342;9.662;2023-03-13T14:14:18;1.00;;;0.90;;
11646;SDS011;5880;52.342;9.662;2023-03-13T14:16:46;1.33;;;0.90;;
11646;SDS011;5880;52.342;9.662;2023-03-13T14:19:57;1.00;;;0.73;;
11646;SDS011;5880;52.342;9.662;2023-03-13T14:22:10;1.38;;;0.80;;
11646;SDS011;5880;52.342;9.662;2023-03-13T14:24:38;0.88;;;0.80;;
11646;SDS011;5880;52.342;9.662;2023-03-13T14:27:14;1.80;;;0.52;;
11646;SDS011;5880;52.342;9.662;2023-03-13T14:29:58;1.38;;;0.82;;
11646;SDS011;5880;52.342;9.662;2023-03-13T14:32:33;0.70;;;0.70;;
11646;SDS011;5880;52.342;9.662;2023-03-13T14:34:59;1.35;;;0.80;;
11646;SDS011;5880;52.342;9.662;2023-03-13T14:37:36;1.42;;;0.85;;
11646;SDS011;5880;52.342;9.662;2023-03-13T14:40:08;0.90;;;0.90;;
11646;SDS011;5880;52.342;9.662;2023-03-13T14:42:54;1.15;;;0.90;;
11646;SDS011;5880;52.342;9.662;2023-03-13T14:45:29;0.77;;;0.70;;
11646;SDS011;5880;52.342;9.662;2023-03-13T14:48:02;0.93;;;0.90;;
11646;SDS011;5880;52.342;9.662;2023-03-13T14:50:43;0.82;;;0.80;;
11646;SDS011;5880;52.342;9.662;2023-03-13T14:53:15;1.45;;;0.90;;
11646;SDS011;5880;52.342;9.662;2023-03-13T14:55:45;1.15;;;0.95;;
11646;SDS011;5880;52.342;9.662;2023-03-13T14:58:28;0.60;;;0.60;;
11646;SDS011;5880;52.342;9.662;2023-03-13T15:00:54;0.70;;;0.70;;
11646;SDS011;5880;52.342;9.662;2023-03-13T15:03:26;0.70;;;0.70;;
11646;SDS011;5880;52.342;9.662;2023-03-13T15:08:35;0.90;;;0.70;;
11646;SDS011;5880;52.342;9.662;2023-03-13T15:11:20;1.65;;;0.77;;
11646;SDS011;5880;52.342;9.662;2023-03-13T15:13:57;1.10;;;0.80;;
11646;SDS011;5880;52.342;9.662;2023-03-13T15:16:24;0.70;;;0.70;;
11646;SDS011;5880;52.342;9.662;2023-03-13T15:18:51;1.33;;;0.90;;
11646;SDS011;5880;52.342;9.662;2023-03-13T15:23:49;0.70;;;0.70;;
11646;SDS011;5880;52.342;9.662;2023-03-13T15:26:39;1.35;;;0.80;;
11646;SDS011;5880;52.342;9.662;2023-03-13T15:29:05;1.02;;;0.98;;
11646;SDS011;5880;52.342;9.662;2023-03-13T15:31:31;1.35;;;0.80;;
11646;SDS011;5880;52.342;9.662;2023-03-13T15:33:58;0.85;;;0.85;;
11646;SDS011;5880;52.342;9.662;2023-03-13T15:36:26;0.68;;;0.68;;
11646;SDS011;5880;52.342;9.662;2023-03-13T15:38:53;0.70;;;0.70;;
11646;SDS011;5880;52.342;9.662;2023-03-13T15:41:19;1.42;;;0.70;;
11646;SDS011;5880;52.342;9.662;2023-03-13T15:43:46;2.63;;;1.00;;
11646;SDS011;5880;52.342;9.662;2023-03-13T15:46:17;1.25;;;0.85;;
11646;SDS011;5880;52.342;9.662;2023-03-13T15:48:44;0.70;;;0.70;;
11646;SDS011;5880;52.342;9.662;2023-03-13T15:51:14;1.92;;;0.70;;
11646;SDS011;5880;52.342;9.662;2023-03-13T15:53:41;0.63;;;0.60;;
11646;SDS011;5880;52.342;9.662;2023-03-13T15:56:14;0.70;;;0.70;;
11646;SDS011;5880;52.342;9.662;2023-03-13T15:58:44;2.60;;;0.77;;
11646;SDS011;5880;52.342;9.662;2023-03-13T16:01:12;0.90;;;0.60;;
11646;SDS011;5880;52.342;9.662;2023-03-13T16:03:40;0.80;;;0.80;;
11646;SDS011;5880;52.342;9.662;2023-03-13T16:06:11;0.55;;;0.55;;
11646;SDS011;5880;52.342;9.662;2023-03-13T16:08:44;0.70;;;0.70;;
11646;SDS011;5880;52.342;9.662;2023-03-13T16:11:11;0.88;;;0.73;;
11646;SDS011;5880;52.342;9.662;2023-03-13T16:13:39;1.55;;;0.70;;
11646;SDS011;5880;52.342;9.662;2023-03-13T16:16:19;0.50;;;0.50;;
11646;SDS011;5880;52.342;9.662;2023-03-13T16:18:48;1.27;;;0.55;;
11646;SDS011;5880;52.342;9.662;2023-03-13T16:21:20;0.75;;;0.75;;
11646;SDS011;5880;52.342;9.662;2023-03-13T16:23:54;0.55;;;0.55;;
11646;SDS011;5880;52.342;9.662;2023-03-13T16:26:21;0.65;;;0.65;;
11646;SDS011;5880;52.342;9.662;2023-03-13T16:28:50;0.95;;;0.60;;
11646;SDS011;5880;52.342;9.662;2023-03-13T16:31:22;0.63;;;0.63;;
11646;SDS011;5880;52.342;9.662;2023-03-13T16:33:52;1.33;;;0.80;;
11646;SDS011;5880;52.342;9.662;2023-03-13T16:36:19;3.58;;;0.90;;
11646;SDS011;5880;52.342;9.662;2023-03-13T16:38:48;2.00;;;0.80;;
11646;SDS011;5880;52.342;9.662;2023-03-13T16:41:19;0.57;;;0.57;;
11646;SDS011;5880;52.342;9.662;2023-03-13T16:43:47;3.05;;;0.80;;
11646;SDS011;5880;52.342;9.662;2023-03-13T16:48:47;0.68;;;0.68;;
11646;SDS011;5880;52.342;9.662;2023-03-13T16:51:18;1.30;;;0.85;;
11646;SDS011;5880;52.342;9.662;2023-03-13T16:53:47;0.60;;;0.60;;
11646;SDS011;5880;52.342;9.662;2023-03-13T16:58:46;1.05;;;0.70;;